createdAt,value
2018-09-08T00:01:44.272Z,3.45
2018-09-08T00:04:12.659Z,3.60
2018-09-08T00:06:41.067Z,2.40
2018-09-08T00:09:09.969Z,16.55
2018-09-08T00:11:38.660Z,5.97
2018-09-08T00:14:07.072Z,10.23
2018-09-08T00:16:40.837Z,6.65
2018-09-08T00:19:14.910Z,9.63
2018-09-08T00:21:49.293Z,5.50
2018-09-08T00:24:22.872Z,2.50
2018-09-08T00:26:50.413Z,4.27
2018-09-08T00:29:22.911Z,4.05
2018-09-08T00:31:51.292Z,5.58
2018-09-08T00:34:19.621Z,10.00
2018-09-08T00:36:47.975Z,3.65
2018-09-08T00:39:16.281Z,10.40
2018-09-08T00:41:44.644Z,4.47
2018-09-08T00:44:12.960Z,8.37
2018-09-08T00:46:41.325Z,2.30
2018-09-08T00:49:09.688Z,6.95
2018-09-08T00:51:37.980Z,2.80
2018-09-08T00:54:06.326Z,6.77
2018-09-08T00:56:35.601Z,3.20
2018-09-08T00:59:04.792Z,5.83
2018-09-08T01:01:34.201Z,4.87
2018-09-08T01:04:03.100Z,2.97
2018-09-08T01:06:31.904Z,10.23
2018-09-08T01:09:00.263Z,3.65
2018-09-08T01:11:28.563Z,4.83
2018-09-08T01:13:56.893Z,6.83
2018-09-08T01:16:25.202Z,8.93
2018-09-08T01:18:53.568Z,3.90
2018-09-08T01:21:21.904Z,6.33
2018-09-08T01:23:50.785Z,6.05
2018-09-08T01:26:19.804Z,2.93
2018-09-08T01:28:48.498Z,11.35
2018-09-08T01:31:16.950Z,8.48
2018-09-08T01:33:46.009Z,5.62
2018-09-08T01:36:14.392Z,2.77
2018-09-08T01:38:42.715Z,6.97
2018-09-08T01:41:11.041Z,3.93
2018-09-08T01:43:39.373Z,5.43
2018-09-08T01:46:07.876Z,4.87
2018-09-08T01:48:36.685Z,5.63
2018-09-08T01:51:05.093Z,5.58
2018-09-08T01:53:33.410Z,3.10
2018-09-08T01:56:01.792Z,8.00
2018-09-08T01:58:30.214Z,5.33
2018-09-08T02:00:58.698Z,5.00
2018-09-08T02:03:27.075Z,3.67
2018-09-08T02:05:55.405Z,7.63
2018-09-08T02:08:23.768Z,2.30
2018-09-08T02:10:52.080Z,1.93
2018-09-08T02:13:20.397Z,3.67
2018-09-08T02:15:48.736Z,8.67
2018-09-08T02:18:17.064Z,5.90
2018-09-08T02:20:45.392Z,2.77
2018-09-08T02:23:13.738Z,3.10
2018-09-08T02:25:42.058Z,2.15
2018-09-08T02:28:10.373Z,4.93
2018-09-08T02:30:38.717Z,4.40
2018-09-08T02:33:07.089Z,4.77
2018-09-08T02:35:35.420Z,11.22
2018-09-08T02:38:03.836Z,2.05
2018-09-08T02:40:32.892Z,3.95
2018-09-08T02:43:01.200Z,6.47
2018-09-08T02:45:29.528Z,3.67
2018-09-08T02:47:57.857Z,4.47
2018-09-08T02:50:29.251Z,5.45
2018-09-08T02:52:56.505Z,2.77
2018-09-08T02:55:23.841Z,7.53
2018-09-08T02:57:51.072Z,6.20
2018-09-08T03:00:18.321Z,2.00
2018-09-08T03:02:45.578Z,4.50
2018-09-08T03:05:12.820Z,2.55
2018-09-08T03:07:40.072Z,5.53
2018-09-08T03:10:07.308Z,7.73
2018-09-08T03:12:34.581Z,10.30
2018-09-08T03:15:01.853Z,7.13
2018-09-08T03:17:29.113Z,4.90
2018-09-08T03:19:56.352Z,4.12
2018-09-08T03:22:23.684Z,15.10
2018-09-08T03:24:51.081Z,8.00
2018-09-08T03:27:18.461Z,2.77
2018-09-08T03:29:45.745Z,7.57
2018-09-08T03:32:13.305Z,3.80
2018-09-08T03:34:40.568Z,10.05
2018-09-08T03:37:07.849Z,4.40
2018-09-08T03:39:35.106Z,6.10
2018-09-08T03:42:02.403Z,5.90
2018-09-08T03:44:29.648Z,7.03
2018-09-08T03:46:56.909Z,6.10
2018-09-08T03:49:24.147Z,2.85
2018-09-08T03:51:51.438Z,6.53
2018-09-08T03:54:18.733Z,4.95
2018-09-08T03:56:45.984Z,9.88
2018-09-08T03:59:13.221Z,7.92
2018-09-08T04:01:40.468Z,3.52
2018-09-08T04:04:08.789Z,3.47
2018-09-08T04:06:37.110Z,6.12
2018-09-08T04:09:08.321Z,5.42
2018-09-08T04:11:36.693Z,7.95
2018-09-08T04:14:05.073Z,4.30
2018-09-08T04:16:33.454Z,7.60
2018-09-08T04:19:02.572Z,2.77
2018-09-08T04:21:31.373Z,16.70
2018-09-08T04:24:00.094Z,3.40
2018-09-08T04:26:28.649Z,7.75
2018-09-08T04:28:56.955Z,12.28
2018-09-08T04:31:25.269Z,14.83
2018-09-08T04:33:53.599Z,7.42
2018-09-08T04:36:21.924Z,7.70
2018-09-08T04:38:50.914Z,4.85
2018-09-08T04:41:19.216Z,5.30
2018-09-08T04:43:47.532Z,6.95
2018-09-08T04:46:15.869Z,10.20
2018-09-08T04:48:45.187Z,6.95
2018-09-08T04:51:13.472Z,6.67
2018-09-08T04:53:41.792Z,4.17
2018-09-08T04:56:10.126Z,5.53
2018-09-08T04:58:38.469Z,9.63
2018-09-08T05:01:06.884Z,7.67
2018-09-08T05:03:35.813Z,4.40
2018-09-08T05:06:04.756Z,6.30
2018-09-08T05:08:33.074Z,7.03
2018-09-08T05:11:01.429Z,7.83
2018-09-08T05:13:30.808Z,7.72
2018-09-08T05:15:59.323Z,4.60
2018-09-08T05:18:27.683Z,9.55
2018-09-08T05:20:56.066Z,7.92
2018-09-08T05:23:24.519Z,8.23
2018-09-08T05:25:52.984Z,6.92
2018-09-08T05:28:21.474Z,11.30
2018-09-08T05:30:49.801Z,8.03
2018-09-08T05:33:18.404Z,3.50
2018-09-08T05:35:46.738Z,8.73
2018-09-08T05:38:15.593Z,10.58
2018-09-08T05:40:43.935Z,14.10
2018-09-08T05:43:12.693Z,8.08
2018-09-08T05:45:41.053Z,7.50
2018-09-08T05:48:09.370Z,9.13
2018-09-08T05:50:37.787Z,7.05
2018-09-08T05:53:06.905Z,11.53
2018-09-08T05:55:35.223Z,18.98
2018-09-08T05:58:03.576Z,6.75
2018-09-08T06:00:31.948Z,10.23
2018-09-08T06:03:00.272Z,7.50
2018-09-08T06:05:29.052Z,6.07
2018-09-08T06:07:57.420Z,7.83
2018-09-08T06:10:25.808Z,12.43
2018-09-08T06:12:54.082Z,10.70
2018-09-08T06:15:22.430Z,7.67
2018-09-08T06:17:50.757Z,6.30
2018-09-08T06:20:21.419Z,9.47
2018-09-08T06:22:50.441Z,3.93
2018-09-08T06:25:29.439Z,8.97
2018-09-08T06:28:00.492Z,9.20
2018-09-08T06:30:29.094Z,10.47
2018-09-08T06:32:57.409Z,5.77
2018-09-08T06:35:26.390Z,11.87
2018-09-08T06:38:00.228Z,12.43
2018-09-08T06:40:29.573Z,22.13
2018-09-08T06:42:59.898Z,8.90
2018-09-08T06:45:45.982Z,7.37
2018-09-08T06:48:14.504Z,13.80
2018-09-08T06:50:43.758Z,8.70
2018-09-08T06:53:12.212Z,7.03
2018-09-08T06:55:40.724Z,6.60
2018-09-08T06:58:09.029Z,11.60
2018-09-08T07:00:38.349Z,8.73
2018-09-08T07:03:06.905Z,7.17
2018-09-08T07:05:35.549Z,13.70
2018-09-08T07:08:03.869Z,8.67
2018-09-08T07:10:32.669Z,7.23
2018-09-08T07:13:05.137Z,10.47
2018-09-08T07:15:33.493Z,8.07
2018-09-08T07:18:08.193Z,15.77
2018-09-08T07:20:37.016Z,7.97
2018-09-08T07:23:05.748Z,8.13
2018-09-08T07:25:40.987Z,13.27
2018-09-08T07:28:09.342Z,15.40
2018-09-08T07:30:37.644Z,8.50
2018-09-08T07:33:06.188Z,8.73
2018-09-08T07:35:34.513Z,6.53
2018-09-08T07:38:02.875Z,4.03
2018-09-08T07:40:31.194Z,13.20
2018-09-08T07:42:59.542Z,7.53
2018-09-08T07:45:27.828Z,26.87
2018-09-08T07:47:56.153Z,7.50
2018-09-08T07:50:26.514Z,8.53
2018-09-08T07:52:54.904Z,9.00
2018-09-08T07:55:23.208Z,10.80
2018-09-08T07:57:51.529Z,4.57
2018-09-08T08:00:19.842Z,6.53
2018-09-08T08:02:48.352Z,7.47
2018-09-08T08:05:16.787Z,9.13
2018-09-08T08:07:45.110Z,10.43
2018-09-08T08:10:13.527Z,4.00
2018-09-08T08:12:46.608Z,4.97
2018-09-08T08:15:23.549Z,4.87
2018-09-08T08:17:56.737Z,7.03
2018-09-08T08:20:33.111Z,3.77
2018-09-08T08:23:05.994Z,6.53
2018-09-08T08:25:37.903Z,12.77
2018-09-08T08:28:11.279Z,7.33
2018-09-08T08:30:43.026Z,3.30
2018-09-08T08:36:01.598Z,8.10
2018-09-08T08:38:36.159Z,3.27
2018-09-08T08:41:06.055Z,12.97
2018-09-08T08:43:37.487Z,7.17
2018-09-08T08:46:13.215Z,5.93
2018-09-08T08:48:44.380Z,20.63
2018-09-08T08:51:27.186Z,5.83
2018-09-08T08:54:09.372Z,3.23
2018-09-08T08:56:42.911Z,6.50
2018-09-08T08:59:15.899Z,5.83
2018-09-08T09:01:44.272Z,2.13
2018-09-08T09:04:12.790Z,4.43
2018-09-08T09:06:41.096Z,6.73
2018-09-08T09:09:14.780Z,5.17
2018-09-08T09:11:43.696Z,14.70
2018-09-08T09:14:12.501Z,13.67
2018-09-08T09:16:41.269Z,17.37
2018-09-08T09:19:37.555Z,18.10
2018-09-08T09:22:19.428Z,12.80
2018-09-08T09:25:10.437Z,16.10
2018-09-08T09:27:43.423Z,13.13
2018-09-08T09:30:12.913Z,12.73
2018-09-08T09:32:41.265Z,13.30
2018-09-08T09:35:13.247Z,17.17
2018-09-08T09:37:41.874Z,16.80
2018-09-08T09:40:11.184Z,14.43
2018-09-08T09:42:39.583Z,13.10
2018-09-08T09:45:08.623Z,18.40
2018-09-08T09:47:36.969Z,12.40
2018-09-08T09:50:05.960Z,11.90
2018-09-08T09:52:34.419Z,19.80
2018-09-08T09:55:02.829Z,15.17
2018-09-08T09:57:34.749Z,11.33
2018-09-08T10:00:07.742Z,15.50
2018-09-08T10:03:12.699Z,20.57
2018-09-08T10:05:43.998Z,15.10
2018-09-08T10:08:17.786Z,17.03
2018-09-08T10:10:48.456Z,15.93
2018-09-08T10:13:22.334Z,18.63
2018-09-08T10:15:52.314Z,20.60
2018-09-08T10:18:21.158Z,11.90
2018-09-08T10:20:49.833Z,14.57
2018-09-08T10:23:18.389Z,13.03
2018-09-08T10:25:46.940Z,12.60
2018-09-08T10:28:15.510Z,15.97
2018-09-08T10:30:44.200Z,15.10
2018-09-08T10:33:12.772Z,14.70
2018-09-08T10:35:42.976Z,11.63
2018-09-08T10:38:11.469Z,14.00
2018-09-08T10:40:40.088Z,21.10
2018-09-08T10:43:08.528Z,13.40
2018-09-08T10:45:36.997Z,12.60
2018-09-08T10:48:05.545Z,13.73
2018-09-08T10:50:34.068Z,19.87
2018-09-08T10:53:02.568Z,14.57
2018-09-08T10:55:31.319Z,17.33
2018-09-08T10:57:59.792Z,12.53
2018-09-08T11:00:28.444Z,9.77
2018-09-08T11:02:57.019Z,11.87
2018-09-08T11:05:25.412Z,13.00
2018-09-08T11:07:53.904Z,14.67
2018-09-08T11:10:23.506Z,11.57
2018-09-08T11:12:51.814Z,8.53
2018-09-08T11:15:20.133Z,12.20
2018-09-08T11:17:49.010Z,13.80
2018-09-08T11:20:17.325Z,11.10
2018-09-08T11:22:45.724Z,13.93
2018-09-08T11:25:14.084Z,12.17
2018-09-08T11:27:42.424Z,16.57
2018-09-08T11:30:10.762Z,11.30
2018-09-08T11:32:39.079Z,13.60
2018-09-08T11:35:07.530Z,12.10
2018-09-08T11:37:36.718Z,14.70
2018-09-08T11:40:05.152Z,14.60
2018-09-08T11:42:33.454Z,12.63
2018-09-08T11:45:01.774Z,13.70
2018-09-08T11:47:30.081Z,6.60
2018-09-08T11:49:58.388Z,13.70
2018-09-08T11:52:26.680Z,1.57
2018-09-08T11:54:54.993Z,3.60
2018-09-08T11:57:23.301Z,4.43
2018-09-08T11:59:51.657Z,6.73
2018-09-08T12:02:20.669Z,2.63
2018-09-08T12:04:48.997Z,1.90
2018-09-08T12:07:17.299Z,5.37
2018-09-08T12:09:45.619Z,2.50
2018-09-08T12:12:13.933Z,3.97
2018-09-08T12:14:42.341Z,5.93
2018-09-08T12:17:11.356Z,4.10
2018-09-08T12:19:39.660Z,2.63
2018-09-08T12:22:08.030Z,2.40
2018-09-08T12:24:36.284Z,2.80
2018-09-08T12:27:04.676Z,4.30
2018-09-08T12:29:33.004Z,3.23
2018-09-08T12:32:01.377Z,7.03
2018-09-08T12:34:29.721Z,8.07
2018-09-08T12:36:58.061Z,5.70
2018-09-08T12:39:26.370Z,1.70
2018-09-08T12:41:54.716Z,1.03
2018-09-08T12:44:23.016Z,1.70
2018-09-08T12:46:51.332Z,3.37
2018-09-08T12:49:19.657Z,2.83
2018-09-08T12:51:48.026Z,5.23
2018-09-08T12:54:16.311Z,2.30
2018-09-08T12:56:44.619Z,3.47
2018-09-08T12:59:13.009Z,3.73
2018-09-08T13:01:41.289Z,7.30
2018-09-08T13:04:09.637Z,2.93
2018-09-08T13:06:37.932Z,1.83
2018-09-08T13:09:06.797Z,2.73
2018-09-08T13:11:35.097Z,8.93
2018-09-08T13:14:03.442Z,3.87
2018-09-08T13:16:32.180Z,3.33
2018-09-08T13:19:00.509Z,5.37
2018-09-08T13:21:28.880Z,3.23
2018-09-08T13:23:57.237Z,6.37
2018-09-08T13:26:25.498Z,2.23
2018-09-08T13:28:53.825Z,4.10
2018-09-08T13:31:22.206Z,3.00
2018-09-08T13:33:50.613Z,5.53
2018-09-08T13:36:18.901Z,2.90
2018-09-08T13:38:47.249Z,2.20
2018-09-08T13:41:15.562Z,3.17
2018-09-08T13:43:44.020Z,4.47
2018-09-08T13:46:12.332Z,6.80
2018-09-08T13:48:40.645Z,1.60
2018-09-08T13:51:09.042Z,2.87
2018-09-08T13:53:37.337Z,4.30
2018-09-08T13:56:06.645Z,2.17
2018-09-08T13:58:35.057Z,8.80
2018-09-08T14:01:03.371Z,2.73
2018-09-08T14:03:31.684Z,3.33
2018-09-08T14:06:00.363Z,2.00
2018-09-08T14:08:28.673Z,5.27
2018-09-08T14:10:57.005Z,1.47
2018-09-08T14:13:25.331Z,3.47
2018-09-08T14:15:53.810Z,3.43
2018-09-08T14:18:22.120Z,2.70
2018-09-08T14:20:50.469Z,7.23
2018-09-08T14:23:18.878Z,5.00
2018-09-08T14:25:47.200Z,9.03
2018-09-08T14:28:15.529Z,4.33
2018-09-08T14:30:43.862Z,3.70
2018-09-08T14:33:12.216Z,2.67
2018-09-08T14:35:40.561Z,5.70
2018-09-08T14:38:09.047Z,2.47
2018-09-08T14:40:38.648Z,2.40
2018-09-08T14:43:07.248Z,2.00
2018-09-08T14:45:35.824Z,2.10
2018-09-08T14:48:04.341Z,1.93
2018-09-08T14:50:33.237Z,4.73
2018-09-08T14:53:01.832Z,1.57
2018-09-08T14:55:30.709Z,6.80
2018-09-08T14:57:59.910Z,1.93
2018-09-08T15:00:28.534Z,4.90
2018-09-08T15:02:58.029Z,2.60
2018-09-08T15:05:26.733Z,1.30
2018-09-08T15:07:55.354Z,2.03
2018-09-08T15:10:23.868Z,5.17
2018-09-08T15:12:52.340Z,1.67
2018-09-08T15:15:21.190Z,4.17
2018-09-08T15:17:49.627Z,6.43
2018-09-08T15:20:18.089Z,4.20
2018-09-08T15:22:46.592Z,4.53
2018-09-08T15:25:15.270Z,5.00
2018-09-08T15:27:43.802Z,3.10
2018-09-08T15:30:12.258Z,1.70
2018-09-08T15:32:40.846Z,4.40
2018-09-08T15:35:09.330Z,5.00
2018-09-08T15:37:37.821Z,6.70
2018-09-08T15:40:06.475Z,1.40
2018-09-08T15:42:35.233Z,7.83
2018-09-08T15:45:04.857Z,1.30
2018-09-08T15:47:35.659Z,3.43
2018-09-08T15:50:04.459Z,6.53
2018-09-08T15:52:32.877Z,4.63
2018-09-08T15:55:01.284Z,3.10
2018-09-08T15:57:29.802Z,3.77
2018-09-08T15:59:58.331Z,2.67
2018-09-08T16:02:26.771Z,2.00
2018-09-08T16:04:55.255Z,2.93
2018-09-08T16:07:23.626Z,2.03
2018-09-08T16:09:52.631Z,2.43
2018-09-08T16:12:21.142Z,4.60
2018-09-08T16:14:49.572Z,1.30
2018-09-08T16:17:17.985Z,1.90
2018-09-08T16:19:46.523Z,2.00
2018-09-08T16:22:15.210Z,3.37
2018-09-08T16:24:43.717Z,5.30
2018-09-08T16:27:12.280Z,2.60
2018-09-08T16:29:40.822Z,4.57
2018-09-08T16:32:12.223Z,7.20
2018-09-08T16:34:46.422Z,2.50
2018-09-08T16:37:19.310Z,4.60
2018-09-08T16:39:53.009Z,4.50
2018-09-08T16:42:25.623Z,2.80
2018-09-08T16:44:54.504Z,2.93
2018-09-08T16:47:23.909Z,1.87
2018-09-08T16:49:53.056Z,1.77
2018-09-08T16:52:21.631Z,10.30
2018-09-08T16:54:50.018Z,3.43
2018-09-08T16:57:18.512Z,10.03
2018-09-08T16:59:46.959Z,4.40
2018-09-08T17:02:15.402Z,1.30
2018-09-08T17:04:44.034Z,4.63
2018-09-08T17:07:12.770Z,2.30
2018-09-08T17:09:41.321Z,2.50
2018-09-08T17:12:10.123Z,1.33
2018-09-08T17:14:39.326Z,4.30
2018-09-08T17:17:07.738Z,2.80
2018-09-08T17:19:36.255Z,2.60
2018-09-08T17:22:04.706Z,0.93
2018-09-08T17:24:33.350Z,2.43
2018-09-08T17:27:01.876Z,3.77
2018-09-08T17:29:30.442Z,2.80
2018-09-08T17:31:58.962Z,1.83
2018-09-08T17:34:27.393Z,2.73
2018-09-08T17:36:56.204Z,4.50
2018-09-08T17:39:25.705Z,5.23
2018-09-08T17:41:54.477Z,2.30
2018-09-08T17:44:23.002Z,6.40
2018-09-08T17:46:51.489Z,2.00
2018-09-08T17:49:19.950Z,4.70
2018-09-08T17:51:48.503Z,55.73
2018-09-08T17:54:16.913Z,85.97
2018-09-08T17:56:45.401Z,92.23
2018-09-08T17:59:16.044Z,64.17
2018-09-08T18:01:48.297Z,33.80
2018-09-08T18:04:20.071Z,25.70
2018-09-08T18:06:53.578Z,9.30
2018-09-08T18:09:29.083Z,5.23
2018-09-08T18:12:05.721Z,24.87
2018-09-08T18:14:41.221Z,13.87
2018-09-08T18:17:14.341Z,8.77
2018-09-08T18:19:47.387Z,17.13
2018-09-08T18:22:19.350Z,8.83
2018-09-08T18:24:52.619Z,13.53
2018-09-08T18:27:23.305Z,16.43
2018-09-08T18:29:53.987Z,9.20
2018-09-08T18:32:26.362Z,18.80
2018-09-08T18:34:56.238Z,6.00
2018-09-08T18:37:30.799Z,10.03
2018-09-08T18:40:02.992Z,8.63
2018-09-08T18:42:34.230Z,9.70
2018-09-08T18:45:04.541Z,10.10
2018-09-08T18:47:41.230Z,7.90
2018-09-08T18:50:14.491Z,6.53
2018-09-08T18:52:49.939Z,7.40
2018-09-08T18:55:21.709Z,9.60
2018-09-08T18:57:58.995Z,7.70
2018-09-08T19:00:30.545Z,3.27
2018-09-08T19:03:08.152Z,6.23
2018-09-08T19:05:38.909Z,9.63
2018-09-08T19:08:13.809Z,4.00
2018-09-08T19:10:45.703Z,4.27
2018-09-08T19:13:17.073Z,8.27
2018-09-08T19:15:50.867Z,5.83
2018-09-08T19:18:21.635Z,11.10
2018-09-08T19:20:50.017Z,5.40
2018-09-08T19:23:18.384Z,5.50
2018-09-08T19:25:46.749Z,11.37
2018-09-08T19:28:15.025Z,12.73
2018-09-08T19:30:43.369Z,3.60
2018-09-08T19:33:11.686Z,6.13
2018-09-08T19:35:42.285Z,7.27
2018-09-08T19:38:12.251Z,6.50
2018-09-08T19:40:46.502Z,5.77
2018-09-08T19:43:14.899Z,10.73
2018-09-08T19:45:43.237Z,19.20
2018-09-08T19:48:16.837Z,6.37
2018-09-08T19:50:45.201Z,12.40
2018-09-08T19:54:19.944Z,8.20
2018-09-08T19:56:53.624Z,6.60
2018-09-08T19:59:21.929Z,12.40
2018-09-08T20:01:50.297Z,8.80
2018-09-08T20:04:18.634Z,3.40
2018-09-08T20:06:46.928Z,5.03
2018-09-08T20:09:15.366Z,6.00
2018-09-08T20:11:43.661Z,9.20
2018-09-08T20:14:12.004Z,10.03
2018-09-08T20:16:40.346Z,16.30
2018-09-08T20:19:08.653Z,8.03
2018-09-08T20:21:37.058Z,5.50
2018-09-08T20:24:05.428Z,5.90
2018-09-08T20:26:33.847Z,15.13
2018-09-08T20:29:09.292Z,9.10
2018-09-08T20:31:38.935Z,8.70
2018-09-08T20:34:15.849Z,17.00
2018-09-08T20:36:47.538Z,7.20
2018-09-08T20:41:58.857Z,5.93
2018-09-08T20:44:27.654Z,10.27
2018-09-08T20:46:55.993Z,4.63
2018-09-08T20:49:29.456Z,24.27
2018-09-08T20:51:57.833Z,10.07
2018-09-08T20:54:28.428Z,10.13
2018-09-08T20:56:57.013Z,5.10
2018-09-08T20:59:25.331Z,8.07
2018-09-08T21:01:54.022Z,6.50
2018-09-08T21:04:23.289Z,4.17
2018-09-08T21:06:51.588Z,10.63
2018-09-08T21:09:25.004Z,5.30
2018-09-08T21:11:54.199Z,6.37
2018-09-08T21:14:22.957Z,14.70
2018-09-08T21:16:51.627Z,4.47
2018-09-08T21:19:20.225Z,6.60
2018-09-08T21:21:48.564Z,4.07
2018-09-08T21:24:17.080Z,6.07
2018-09-08T21:26:45.454Z,12.90
2018-09-08T21:29:18.039Z,6.70
2018-09-08T21:31:53.561Z,8.53
2018-09-08T21:34:22.187Z,4.03
2018-09-08T21:36:51.722Z,19.57
2018-09-08T21:39:21.169Z,6.97
2018-09-08T21:41:50.461Z,7.93
2018-09-08T21:44:19.419Z,7.53
2018-09-08T21:46:48.003Z,6.80
2018-09-08T21:49:27.176Z,7.37
2018-09-08T21:51:55.524Z,10.77
2018-09-08T21:54:24.049Z,7.10
2018-09-08T21:56:53.507Z,6.37
2018-09-08T21:59:21.854Z,16.30
2018-09-08T22:01:50.643Z,5.13
2018-09-08T22:04:19.162Z,5.60
2018-09-08T22:06:47.879Z,10.43
2018-09-08T22:09:17.193Z,5.10
2018-09-08T22:11:45.804Z,6.67
2018-09-08T22:14:14.141Z,20.00
2018-09-08T22:16:43.459Z,14.07
2018-09-08T22:19:12.146Z,17.97
2018-09-08T22:21:40.651Z,8.97
2018-09-08T22:24:09.128Z,11.90
2018-09-08T22:26:37.609Z,12.60
2018-09-08T22:29:06.035Z,8.47
2018-09-08T22:31:34.474Z,6.47
2018-09-08T22:34:02.928Z,11.77
2018-09-08T22:36:51.550Z,9.40
2018-09-08T22:39:20.032Z,9.33
2018-09-08T22:41:48.459Z,8.93
2018-09-08T22:44:16.828Z,5.70
2018-09-08T22:46:45.349Z,7.50
2018-09-08T22:49:13.748Z,8.63
2018-09-08T22:51:42.125Z,10.03
2018-09-08T22:54:10.877Z,7.40
2018-09-08T22:56:39.453Z,16.83
2018-09-08T22:59:07.832Z,10.37
2018-09-08T23:01:36.188Z,12.27
2018-09-08T23:04:04.669Z,6.07
2018-09-08T23:06:33.222Z,11.73
2018-09-08T23:09:01.604Z,12.03
2018-09-08T23:11:29.941Z,9.97
2018-09-08T23:13:58.498Z,8.60
2018-09-08T23:16:27.104Z,5.63
2018-09-08T23:18:55.904Z,7.53
2018-09-08T23:21:24.235Z,8.53
2018-09-08T23:23:53.565Z,12.83
2018-09-08T23:26:21.979Z,5.63
2018-09-08T23:28:50.320Z,7.93
2018-09-08T23:31:18.820Z,16.30
2018-09-08T23:33:47.333Z,11.90
2018-09-08T23:36:15.672Z,10.87
2018-09-08T23:38:44.038Z,7.60
2018-09-08T23:41:12.610Z,9.30
2018-09-08T23:43:41.024Z,14.60
2018-09-08T23:46:09.733Z,4.33
2018-09-08T23:48:38.397Z,6.90
2018-09-08T23:51:09.328Z,6.00
2018-09-08T23:53:59.653Z,7.70
2018-09-08T23:56:28.080Z,8.00
2018-09-08T23:58:56.396Z,8.27
